Time;durP1;ratioP1;P1;durP2;ratioP2;P2;SDS_P1;SDS_P2;PMS_P1;PMS_P2;Temp;Humidity;BMP_temperature;BMP_pressure;BME280_temperature;BME280_humidity;BME280_pressure;Samples;Min_cycle;Max_cycle;Signal;HPM_P1;HPM_P2
2021/05/29 00:00:15;;;;;;;6.35;5.75;;;12.90;99.90;;;;;;5091160;28;20234;-39
2021/05/29 00:02:43;;;;;;;6.60;6.03;;;12.90;99.90;;;;;;5091496;28;20218;-39
2021/05/29 00:05:12;;;;;;;9.00;8.05;;;12.80;99.90;;;;;;5091175;28;20238;-40
2021/05/29 00:07:40;;;;;;;8.93;8.02;;;12.80;99.90;;;;;;5091359;28;20607;-41
2021/05/29 00:10:09;;;;;;;8.23;7.43;;;12.70;99.90;;;;;;5091458;28;20213;-39
2021/05/29 00:12:37;;;;;;;10.48;7.70;;;12.70;99.90;;;;;;5091127;28;20234;-39
2021/05/29 00:15:06;;;;;;;8.32;7.38;;;12.70;99.90;;;;;;5091039;28;20249;-37
2021/05/29 00:17:33;;;;;;;7.60;6.90;;;12.70;99.90;;;;;;5091329;28;20203;-38
2021/05/29 00:20:01;;;;;;;9.50;7.93;;;12.70;99.90;;;;;;5091413;28;20231;-39
2021/05/29 00:22:28;;;;;;;6.70;6.10;;;12.70;99.90;;;;;;5091027;28;20744;-38
2021/05/29 00:24:56;;;;;;;7.50;6.03;;;12.60;99.90;;;;;;5091213;28;20226;-39
2021/05/29 00:27:24;;;;;;;6.63;5.85;;;12.50;99.90;;;;;;5090794;28;20202;-38
2021/05/29 00:29:51;;;;;;;6.70;6.00;;;12.50;99.90;;;;;;5092387;28;20210;-38
2021/05/29 00:32:19;;;;;;;6.32;5.70;;;12.40;99.90;;;;;;5094685;28;20721;-38
2021/05/29 00:34:46;;;;;;;6.60;5.95;;;12.40;99.90;;;;;;5094814;28;20307;-37
2021/05/29 00:37:14;;;;;;;8.20;5.65;;;12.40;99.90;;;;;;5094557;28;20213;-40
2021/05/29 00:39:41;;;;;;;7.53;6.28;;;12.40;99.90;;;;;;5094552;28;20301;-40
2021/05/29 00:42:09;;;;;;;6.30;5.70;;;12.30;99.90;;;;;;5094869;28;20206;-38
2021/05/29 00:44:49;;;;;;;6.35;5.75;;;12.30;99.90;;;;;;5094503;28;20627;-38
2021/05/29 00:47:20;;;;;;;8.77;6.80;;;12.30;99.90;;;;;;5094598;28;20610;-38
2021/05/29 00:49:48;;;;;;;6.55;5.90;;;12.20;99.90;;;;;;5094583;28;20209;-39
2021/05/29 00:52:16;;;;;;;7.18;6.35;;;12.20;99.90;;;;;;5094411;28;20206;-38
2021/05/29 00:54:45;;;;;;;10.40;6.35;;;12.10;99.90;;;;;;5094369;28;20732;-40
2021/05/29 00:57:14;;;;;;;6.93;6.15;;;12.10;99.90;;;;;;5094459;28;20570;-38
2021/05/29 00:59:41;;;;;;;6.05;5.55;;;12.10;99.90;;;;;;5094221;28;20294;-38
2021/05/29 01:02:12;;;;;;;7.90;6.53;;;12.20;99.90;;;;;;5094331;28;20221;-38
2021/05/29 01:04:40;;;;;;;5.97;5.47;;;12.20;99.90;;;;;;5093978;28;20223;-39
2021/05/29 01:07:11;;;;;;;6.63;6.07;;;12.20;99.90;;;;;;5094286;28;20256;-39
2021/05/29 01:09:39;;;;;;;6.45;5.63;;;12.20;99.90;;;;;;5094521;28;20534;-40
2021/05/29 01:12:09;;;;;;;6.38;5.75;;;12.20;99.90;;;;;;5093990;28;20294;-38
2021/05/29 01:14:40;;;;;;;5.85;5.35;;;12.20;99.90;;;;;;5094046;28;20729;-38
2021/05/29 01:17:09;;;;;;;6.85;6.10;;;12.20;99.90;;;;;;5093852;28;20323;-41
2021/05/29 01:19:36;;;;;;;6.70;6.10;;;12.20;99.90;;;;;;5093742;28;20295;-37
2021/05/29 01:22:06;;;;;;;6.43;5.93;;;12.20;99.90;;;;;;5093996;28;20598;-38
2021/05/29 01:24:34;;;;;;;6.18;5.68;;;12.30;99.90;;;;;;5094045;28;20226;-39
2021/05/29 01:27:02;;;;;;;5.53;5.03;;;12.20;99.90;;;;;;5093788;28;20289;-38
2021/05/29 01:29:29;;;;;;;6.20;5.57;;;12.20;99.90;;;;;;5093557;28;20306;-38
2021/05/29 01:32:02;;;;;;;5.82;5.32;;;12.20;99.90;;;;;;5093253;28;20236;-38
2021/05/29 01:34:33;;;;;;;6.18;5.57;;;12.20;99.90;;;;;;5093578;28;20660;-38
2021/05/29 01:37:02;;;;;;;10.23;5.18;;;12.30;99.90;;;;;;5093975;28;20302;-39
2021/05/29 01:39:31;;;;;;;5.60;5.10;;;12.30;99.90;;;;;;5093864;28;20311;-38
2021/05/29 01:41:59;;;;;;;6.57;5.65;;;12.40;99.90;;;;;;5093267;28;20242;-38
2021/05/29 01:44:26;;;;;;;6.20;5.70;;;12.30;99.90;;;;;;5093486;28;20318;-39
2021/05/29 01:46:54;;;;;;;7.63;5.63;;;12.30;99.90;;;;;;5093709;28;20242;-39
2021/05/29 01:49:22;;;;;;;6.43;5.35;;;12.30;99.90;;;;;;5093674;28;20241;-38
2021/05/29 01:51:50;;;;;;;6.57;6.07;;;12.30;99.90;;;;;;5093358;28;20669;-38
2021/05/29 01:54:17;;;;;;;7.10;6.40;;;12.20;99.90;;;;;;5093514;28;20245;-38
2021/05/29 01:56:46;;;;;;;6.65;5.80;;;12.20;99.90;;;;;;5093231;28;20293;-41
2021/05/29 01:59:13;;;;;;;9.52;6.07;;;12.20;99.90;;;;;;5093605;28;20207;-38
2021/05/29 02:01:40;;;;;;;5.68;5.18;;;12.20;99.90;;;;;;5093381;28;20633;-38
2021/05/29 02:04:08;;;;;;;6.20;5.68;;;12.20;99.90;;;;;;5093591;28;20289;-38
2021/05/29 02:06:35;;;;;;;7.18;6.32;;;12.10;99.90;;;;;;5093378;28;20302;-41
2021/05/29 02:09:03;;;;;;;6.20;5.70;;;12.00;99.90;;;;;;5093116;28;20609;-38
2021/05/29 02:11:30;;;;;;;6.85;5.95;;;12.10;99.90;;;;;;5093015;28;20219;-41
2021/05/29 02:13:59;;;;;;;7.30;6.30;;;12.10;99.90;;;;;;5093338;28;20206;-38
2021/05/29 02:16:26;;;;;;;6.95;6.18;;;12.10;99.90;;;;;;5093147;28;20206;-39
2021/05/29 02:18:54;;;;;;;6.85;6.25;;;12.00;99.90;;;;;;5093050;28;20271;-38
2021/05/29 02:21:21;;;;;;;6.47;5.75;;;11.90;99.90;;;;;;5092876;28;20246;-38
2021/05/29 02:23:50;;;;;;;7.13;5.95;;;11.90;99.90;;;;;;5092771;28;20302;-38
2021/05/29 02:26:21;;;;;;;6.85;5.70;;;11.90;99.90;;;;;;5092982;28;20649;-38
2021/05/29 02:28:50;;;;;;;6.03;5.53;;;11.90;99.90;;;;;;5093001;28;20257;-38
2021/05/29 02:31:19;;;;;;;5.53;5.13;;;11.90;99.90;;;;;;5092682;28;20236;-37
2021/05/29 02:33:47;;;;;;;5.53;5.13;;;12.00;99.90;;;;;;5092762;28;20210;-38
2021/05/29 02:36:15;;;;;;;7.28;6.57;;;12.00;99.90;;;;;;5092590;28;20286;-37
2021/05/29 02:38:42;;;;;;;6.22;5.68;;;11.90;99.90;;;;;;5092869;28;20297;-37
2021/05/29 02:41:12;;;;;;;7.28;6.53;;;11.90;99.90;;;;;;5092653;28;20202;-38
2021/05/29 02:43:40;;;;;;;8.30;6.38;;;11.80;99.90;;;;;;5092513;28;20210;-38
2021/05/29 02:46:09;;;;;;;7.03;6.28;;;11.80;99.90;;;;;;5092575;28;20226;-38
2021/05/29 02:48:37;;;;;;;6.85;6.32;;;11.80;99.90;;;;;;5092577;28;20253;-38
2021/05/29 02:51:05;;;;;;;6.07;5.50;;;11.80;99.90;;;;;;5092381;28;20295;-38
2021/05/29 02:53:33;;;;;;;6.90;6.28;;;11.70;99.90;;;;;;5091847;28;20298;-39
2021/05/29 02:56:00;;;;;;;5.97;5.47;;;11.70;99.90;;;;;;5092504;28;20199;-39
2021/05/29 02:58:28;;;;;;;6.72;6.13;;;11.70;99.90;;;;;;5092343;28;20297;-38
2021/05/29 03:00:55;;;;;;;5.70;5.15;;;11.70;99.90;;;;;;5092293;28;20314;-38
2021/05/29 03:03:23;;;;;;;6.28;5.78;;;11.70;99.90;;;;;;5092192;28;20289;-38
2021/05/29 03:05:51;;;;;;;5.78;5.35;;;11.80;99.90;;;;;;5091951;28;20230;-38
2021/05/29 03:08:20;;;;;;;7.28;5.82;;;11.80;99.90;;;;;;5092267;28;20206;-38
2021/05/29 03:10:49;;;;;;;6.38;5.75;;;11.90;99.90;;;;;;5091990;28;20645;-38
2021/05/29 03:13:17;;;;;;;6.00;5.50;;;11.90;99.90;;;;;;5091958;28;20217;-38
2021/05/29 03:15:45;;;;;;;5.80;5.30;;;12.00;99.90;;;;;;5092160;28;20230;-39
2021/05/29 03:18:12;;;;;;;6.63;5.53;;;12.00;99.90;;;;;;5091939;28;20321;-38
2021/05/29 03:20:39;;;;;;;8.30;5.70;;;12.10;99.90;;;;;;5091911;28;20235;-40
2021/05/29 03:23:08;;;;;;;10.20;5.82;;;12.00;99.90;;;;;;5092071;28;20202;-37
2021/05/29 03:25:35;;;;;;;5.47;5.03;;;12.00;99.90;;;;;;5091925;28;20242;-38
2021/05/29 03:28:04;;;;;;;5.85;5.25;;;11.90;99.90;;;;;;5091850;28;20217;-38
2021/05/29 03:30:32;;;;;;;6.13;5.63;;;11.90;99.90;;;;;;5091744;28;20281;-38
2021/05/29 03:32:59;;;;;;;6.10;5.60;;;12.00;99.90;;;;;;5091408;28;20228;-38
2021/05/29 03:35:27;;;;;;;6.10;5.50;;;12.00;99.90;;;;;;5090810;28;20673;-37
2021/05/29 03:37:55;;;;;;;5.47;5.07;;;12.00;99.90;;;;;;5091750;28;20585;-38
2021/05/29 03:40:23;;;;;;;5.70;5.20;;;11.90;99.90;;;;;;5091420;28;20570;-38
2021/05/29 03:42:52;;;;;;;5.30;4.90;;;11.80;99.90;;;;;;5091582;28;20661;-38
2021/05/29 03:45:22;;;;;;;6.82;5.68;;;11.80;99.90;;;;;;5091311;28;20292;-38
2021/05/29 03:47:49;;;;;;;5.35;4.85;;;11.70;99.90;;;;;;5091626;28;20215;-38
2021/05/29 03:50:19;;;;;;;6.20;5.70;;;11.70;99.90;;;;;;5091832;28;20210;-38
2021/05/29 03:52:46;;;;;;;6.03;5.43;;;11.70;99.90;;;;;;5091077;28;20229;-38
2021/05/29 03:55:15;;;;;;;6.28;5.22;;;11.70;99.90;;;;;;5091462;28;20203;-38
2021/05/29 03:57:44;;;;;;;5.75;5.25;;;11.70;99.90;;;;;;5091238;28;20736;-38
2021/05/29 04:00:14;;;;;;;4.90;4.50;;;11.80;99.90;;;;;;5091328;28;20776;-38
2021/05/29 04:02:42;;;;;;;5.57;5.05;;;11.90;99.90;;;;;;5090577;28;20653;-38
2021/05/29 04:05:11;;;;;;;5.82;4.63;;;12.00;99.90;;;;;;5094362;28;20583;-38
2021/05/29 04:07:39;;;;;;;5.25;4.85;;;12.00;99.90;;;;;;5094936;28;20624;-39
2021/05/29 04:10:08;;;;;;;5.13;4.72;;;12.10;99.90;;;;;;5094972;28;20206;-38
2021/05/29 04:12:36;;;;;;;6.05;5.30;;;12.10;99.90;;;;;;5095505;28;20232;-39
2021/05/29 04:15:06;;;;;;;5.22;4.72;;;12.10;99.90;;;;;;5095255;28;20718;-38
2021/05/29 04:17:34;;;;;;;5.40;4.93;;;12.10;99.90;;;;;;5094937;28;20297;-38
2021/05/29 04:20:01;;;;;;;5.00;4.40;;;12.20;99.90;;;;;;5095224;28;20333;-38
2021/05/29 04:22:29;;;;;;;5.60;5.00;;;12.20;99.90;;;;;;5095224;28;20294;-38
2021/05/29 04:24:56;;;;;;;4.95;4.53;;;12.10;99.90;;;;;;5094564;28;20301;-38
2021/05/29 04:27:24;;;;;;;6.53;5.93;;;12.10;99.90;;;;;;5095002;28;20289;-38
2021/05/29 04:29:51;;;;;;;5.72;4.85;;;12.10;99.90;;;;;;5095309;28;20213;-41
2021/05/29 04:32:20;;;;;;;5.45;4.95;;;12.20;99.90;;;;;;5095159;28;20217;-39
2021/05/29 04:34:47;;;;;;;5.18;4.75;;;12.20;99.90;;;;;;5095038;28;20206;-41
2021/05/29 04:37:16;;;;;;;5.90;5.35;;;12.20;99.90;;;;;;5095085;28;20677;-38
2021/05/29 04:39:44;;;;;;;5.05;4.40;;;12.30;99.90;;;;;;5095359;28;20293;-38
2021/05/29 04:42:13;;;;;;;4.53;4.15;;;12.40;99.90;;;;;;5095170;28;20685;-39
2021/05/29 04:44:40;;;;;;;5.40;4.55;;;12.40;99.90;;;;;;5095199;28;20207;-40
2021/05/29 04:47:08;;;;;;;5.18;4.75;;;12.60;99.90;;;;;;5094813;28;20692;-38
2021/05/29 04:49:36;;;;;;;10.13;4.15;;;12.70;99.90;;;;;;5094865;28;20213;-39
2021/05/29 04:52:05;;;;;;;4.20;3.80;;;12.70;99.90;;;;;;5094768;28;20210;-39
2021/05/29 04:54:33;;;;;;;10.35;9.40;;;12.80;99.90;;;;;;5094366;28;20297;-39
2021/05/29 04:57:01;;;;;;;5.60;4.30;;;12.90;99.90;;;;;;5094941;28;20202;-39
2021/05/29 04:59:31;;;;;;;5.82;5.30;;;13.00;99.90;;;;;;5094901;28;20289;-38
2021/05/29 05:01:59;;;;;;;4.82;4.32;;;13.00;99.90;;;;;;5094641;28;20242;-39
2021/05/29 05:04:26;;;;;;;5.10;3.90;;;13.10;99.90;;;;;;5094573;28;20301;-39
2021/05/29 05:06:54;;;;;;;6.60;4.80;;;13.10;99.90;;;;;;5094745;28;20256;-40
2021/05/29 05:09:22;;;;;;;4.47;4.05;;;13.20;99.90;;;;;;5094644;28;20630;-39
2021/05/29 05:11:50;;;;;;;4.18;3.83;;;13.40;99.90;;;;;;5094391;28;20217;-40
2021/05/29 05:14:17;;;;;;;4.07;3.67;;;13.50;99.90;;;;;;5094539;28;20213;-41
2021/05/29 05:16:45;;;;;;;4.70;4.00;;;13.70;99.90;;;;;;5093628;28;20202;-39
2021/05/29 05:19:13;;;;;;;5.25;4.00;;;13.70;99.90;;;;;;5093785;28;20730;-39
2021/05/29 05:21:40;;;;;;;4.43;3.80;;;13.80;99.90;;;;;;5094457;28;20203;-39
2021/05/29 05:24:09;;;;;;;10.25;3.58;;;14.00;99.90;;;;;;5094329;28;20294;-39
2021/05/29 05:26:37;;;;;;;4.50;4.05;;;14.10;99.80;;;;;;5094156;28;20238;-39
2021/05/29 05:29:05;;;;;;;4.15;3.75;;;14.20;99.50;;;;;;5094586;28;20622;-39
2021/05/29 05:31:32;;;;;;;4.32;3.35;;;14.30;99.20;;;;;;5094041;28;20297;-40
2021/05/29 05:34:07;;;;;;;4.00;3.60;;;14.40;99.10;;;;;;5094145;28;20240;-40
2021/05/29 05:36:34;;;;;;;3.42;3.15;;;14.60;98.70;;;;;;5094230;28;20206;-38
2021/05/29 05:39:02;;;;;;;3.83;3.53;;;14.60;98.40;;;;;;5094326;28;20546;-38
2021/05/29 05:41:31;;;;;;;3.45;3.15;;;14.70;98.10;;;;;;5093823;28;20657;-38
2021/05/29 05:43:58;;;;;;;4.55;4.15;;;14.80;98.00;;;;;;5093630;28;20297;-38
2021/05/29 05:46:25;;;;;;;3.60;3.30;;;14.70;97.80;;;;;;5094167;28;20231;-39
2021/05/29 05:48:53;;;;;;;3.92;3.63;;;14.80;97.70;;;;;;5093558;28;20202;-39
2021/05/29 05:51:21;;;;;;;3.95;3.60;;;14.90;97.40;;;;;;5093678;28;20573;-39
2021/05/29 05:53:48;;;;;;;4.25;3.53;;;15.00;97.20;;;;;;5094058;28;20230;-39
2021/05/29 05:56:25;;;;;;;3.80;3.38;;;15.20;97.00;;;;;;5093833;28;20732;-40
2021/05/29 05:58:55;;;;;;;3.92;3.63;;;15.30;96.60;;;;;;5093957;28;20296;-39
2021/05/29 06:01:23;;;;;;;3.78;3.47;;;15.40;96.40;;;;;;5093951;28;20241;-39
2021/05/29 06:03:51;;;;;;;3.70;3.40;;;15.50;96.30;;;;;;5093722;28;20203;-39
2021/05/29 06:06:19;;;;;;;3.70;3.40;;;15.50;96.20;;;;;;5093686;28;20321;-41
2021/05/29 06:08:47;;;;;;;3.75;3.45;;;15.60;96.00;;;;;;5093621;28;20207;-39
2021/05/29 06:11:14;;;;;;;3.80;3.50;;;15.70;95.90;;;;;;5093335;28;20206;-41
2021/05/29 06:19:17;;;;;;;3.45;3.15;;;15.90;95.60;;;;;;5092563;28;20598;-39
2021/05/29 06:21:49;;;;;;;4.15;3.65;;;16.00;95.40;;;;;;5093320;28;20218;-39
2021/05/29 06:24:19;;;;;;;4.32;3.38;;;16.00;95.20;;;;;;5092710;28;20202;-39
2021/05/29 06:26:47;;;;;;;5.25;3.60;;;16.10;95.00;;;;;;5091951;28;20233;-40
2021/05/29 06:29:15;;;;;;;4.55;3.50;;;16.20;94.80;;;;;;5092421;28;20737;-39
2021/05/29 06:31:43;;;;;;;3.78;3.25;;;16.30;94.50;;;;;;5092711;28;20571;-39
2021/05/29 06:34:11;;;;;;;4.40;3.75;;;16.40;94.30;;;;;;5092961;28;20203;-39
2021/05/29 06:36:38;;;;;;;4.90;3.17;;;16.40;94.20;;;;;;5092647;28;20616;-39
2021/05/29 06:39:06;;;;;;;3.85;2.92;;;16.50;94.00;;;;;;5092564;28;20213;-41
2021/05/29 06:41:35;;;;;;;3.63;3.00;;;16.70;93.70;;;;;;5092478;28;20309;-42
2021/05/29 06:44:04;;;;;;;3.60;3.25;;;16.90;93.50;;;;;;5092563;28;20301;-40
2021/05/29 06:46:31;;;;;;;3.83;2.90;;;17.10;93.20;;;;;;5092491;28;20775;-40
2021/05/29 06:49:01;;;;;;;4.90;3.33;;;17.30;92.80;;;;;;5092599;28;20206;-40
2021/05/29 06:51:34;;;;;;;3.72;3.08;;;17.40;92.50;;;;;;5092604;28;20255;-40
2021/05/29 06:54:05;;;;;;;5.25;3.13;;;17.50;92.10;;;;;;5092430;28;20241;-40
2021/05/29 06:59:18;;;;;;;3.63;3.03;;;17.50;91.80;;;;;;5092566;28;20306;-42
2021/05/29 07:01:46;;;;;;;4.50;3.40;;;17.50;91.70;;;;;;5092103;28;20609;-40
2021/05/29 07:04:14;;;;;;;3.50;3.10;;;17.40;91.70;;;;;;5092272;28;20253;-42
2021/05/29 07:06:42;;;;;;;2.95;2.67;;;17.40;91.60;;;;;;5091682;28;20226;-39
2021/05/29 07:09:09;;;;;;;4.18;3.38;;;17.40;91.30;;;;;;5091810;28;20297;-39
2021/05/29 07:11:39;;;;;;;10.60;9.48;;;17.40;91.20;;;;;;5091970;28;20306;-40
2021/05/29 07:14:07;;;;;;;5.63;3.33;;;17.30;91.00;;;;;;5092596;28;20207;-39
2021/05/29 07:16:47;;;;;;;3.05;2.72;;;17.30;91.10;;;;;;5091936;28;20203;-39
2021/05/29 07:19:16;;;;;;;2.83;2.40;;;17.20;91.10;;;;;;5091853;28;20256;-42
2021/05/29 07:21:43;;;;;;;3.63;3.15;;;17.10;91.20;;;;;;5091834;28;20217;-40
2021/05/29 07:24:11;;;;;;;2.92;2.72;;;17.10;91.10;;;;;;5092225;28;20298;-40
2021/05/29 07:26:39;;;;;;;4.65;3.33;;;17.10;91.10;;;;;;5091817;28;20653;-39
2021/05/29 07:29:07;;;;;;;12.95;11.77;;;17.10;90.90;;;;;;5091968;28;20668;-39
2021/05/29 07:31:34;;;;;;;3.60;3.30;;;17.20;90.60;;;;;;5091913;28;20289;-39
2021/05/29 07:34:03;;;;;;;3.22;2.97;;;17.30;90.40;;;;;;5091586;28;20206;-40
2021/05/29 07:36:31;;;;;;;2.50;2.33;;;17.50;90.00;;;;;;5091471;28;20206;-39
2021/05/29 07:38:59;;;;;;;3.65;3.28;;;17.60;89.70;;;;;;5091653;28;20591;-39
2021/05/29 07:41:27;;;;;;;3.05;2.72;;;17.70;89.50;;;;;;5091686;28;20722;-41
2021/05/29 07:43:54;;;;;;;4.45;2.97;;;17.70;88.30;;;;;;5091800;28;20256;-40
2021/05/29 07:46:22;;;;;;;2.67;2.47;;;17.80;87.60;;;;;;5091863;28;20280;-39
2021/05/29 07:48:51;;;;;;;3.50;2.30;;;17.60;87.30;;;;;;5091547;28;20685;-40
2021/05/29 07:51:18;;;;;;;3.88;2.20;;;17.60;87.00;;;;;;5091812;28;20259;-39
2021/05/29 07:53:46;;;;;;;4.15;2.65;;;17.70;86.60;;;;;;5091190;28;20661;-40
2021/05/29 07:56:16;;;;;;;6.40;5.88;;;17.70;85.70;;;;;;5091407;28;20207;-40
2021/05/29 07:58:46;;;;;;;3.35;3.05;;;17.80;85.10;;;;;;5091508;28;20234;-40
2021/05/29 08:01:15;;;;;;;2.90;2.70;;;17.70;84.50;;;;;;5091706;28;20207;-41
2021/05/29 08:03:43;;;;;;;3.97;2.90;;;17.80;84.00;;;;;;5091419;28;20217;-41
2021/05/29 08:06:14;;;;;;;2.78;2.50;;;17.70;83.60;;;;;;5091299;28;20706;-39
2021/05/29 08:08:42;;;;;;;2.50;2.30;;;17.80;83.30;;;;;;5091612;28;20217;-40
2021/05/29 08:11:16;;;;;;;3.60;3.30;;;17.90;82.50;;;;;;5091283;28;20238;-39
2021/05/29 08:13:44;;;;;;;2.70;2.50;;;18.00;81.80;;;;;;5091381;28;20246;-39
2021/05/29 08:16:13;;;;;;;4.38;3.75;;;18.00;81.60;;;;;;5091158;28;20351;-40
2021/05/29 08:18:41;;;;;;;2.97;2.75;;;17.90;81.70;;;;;;5091537;28;20214;-40
2021/05/29 08:21:09;;;;;;;3.00;2.70;;;18.00;81.70;;;;;;5091194;28;20242;-39
2021/05/29 08:23:36;;;;;;;19.85;12.45;;;18.10;81.10;;;;;;5091188;28;20217;-40
2021/05/29 08:26:04;;;;;;;4.13;3.70;;;18.20;80.90;;;;;;5091156;28;20293;-40
2021/05/29 08:28:33;;;;;;;7.10;6.00;;;18.30;80.90;;;;;;5091083;28;20210;-40
2021/05/29 08:31:01;;;;;;;3.15;2.85;;;18.40;80.20;;;;;;5091347;28;20246;-41
2021/05/29 08:33:29;;;;;;;16.63;8.50;;;18.60;79.50;;;;;;5091025;28;20207;-40
2021/05/29 08:35:57;;;;;;;2.90;2.58;;;18.70;78.90;;;;;;5091344;28;20206;-42
2021/05/29 08:38:24;;;;;;;3.60;2.97;;;18.80;78.60;;;;;;5091070;28;20249;-41
2021/05/29 08:40:52;;;;;;;4.60;2.97;;;18.90;78.30;;;;;;5090947;28;20214;-39
2021/05/29 08:43:20;;;;;;;3.47;2.60;;;19.00;77.60;;;;;;5090963;28;20207;-39
2021/05/29 08:45:48;;;;;;;3.45;3.15;;;19.20;77.80;;;;;;5090902;28;20217;-40
2021/05/29 08:48:17;;;;;;;3.88;2.40;;;19.20;76.80;;;;;;5090559;28;20842;-40
2021/05/29 08:53:27;;;;;;;2.42;2.22;;;18.60;76.40;;;;;;5094311;28;20597;-39
2021/05/29 08:55:54;;;;;;;3.58;2.03;;;18.40;76.50;;;;;;5094693;28;20213;-39
2021/05/29 08:58:22;;;;;;;5.03;2.97;;;18.10;76.80;;;;;;5095114;28;20286;-40
2021/05/29 09:00:50;;;;;;;2.58;2.38;;;17.90;77.30;;;;;;5095978;28;20218;-39
2021/05/29 09:03:18;;;;;;;4.18;2.40;;;17.70;77.10;;;;;;5095713;28;20218;-39
2021/05/29 09:05:50;;;;;;;2.17;1.90;;;17.60;77.20;;;;;;5095892;28;20669;-40
2021/05/29 09:08:20;;;;;;;4.72;2.40;;;17.70;76.90;;;;;;5096108;28;20316;-43
2021/05/29 09:10:51;;;;;;;2.88;2.40;;;18.00;75.70;;;;;;5096493;28;20211;-41
2021/05/29 09:13:20;;;;;;;4.00;3.60;;;18.30;74.50;;;;;;5095120;28;20301;-40
2021/05/29 09:15:52;;;;;;;2.60;2.17;;;18.60;73.40;;;;;;5094133;28;20611;-40
2021/05/29 09:18:45;;;;;;;2.22;2.03;;;18.90;72.90;;;;;;5094212;28;20411;-40
2021/05/29 09:21:29;;;;;;;3.38;2.90;;;19.20;70.60;;;;;;5093944;28;20239;-40
2021/05/29 09:23:59;;;;;;;3.65;2.58;;;19.20;71.40;;;;;;5094106;28;20417;-40
2021/05/29 09:26:45;;;;;;;3.35;2.20;;;19.40;71.00;;;;;;5094034;28;20577;-43
2021/05/29 09:29:17;;;;;;;3.28;1.85;;;19.50;70.40;;;;;;5094546;28;20374;-40
2021/05/29 09:31:58;;;;;;;4.00;2.83;;;19.60;70.20;;;;;;5093745;28;20230;-40
2021/05/29 09:34:34;;;;;;;2.45;2.25;;;19.80;69.80;;;;;;5093865;28;20210;-42
2021/05/29 09:37:03;;;;;;;3.67;2.33;;;20.00;68.90;;;;;;5093962;28;20238;-40
2021/05/29 09:39:31;;;;;;;2.17;2.00;;;20.10;68.70;;;;;;5093686;28;20207;-42
2021/05/29 09:42:00;;;;;;;5.78;2.58;;;20.30;68.10;;;;;;5093691;28;20202;-40
2021/05/29 09:44:28;;;;;;;4.03;2.97;;;20.50;67.40;;;;;;5093693;28;20236;-43
2021/05/29 09:46:58;;;;;;;13.80;10.13;;;20.70;66.30;;;;;;5093412;28;20233;-40
2021/05/29 09:49:41;;;;;;;2.35;2.15;;;20.90;65.00;;;;;;5093266;28;20210;-47
2021/05/29 09:52:22;;;;;;;4.80;3.55;;;21.00;63.70;;;;;;5093508;28;20298;-42
2021/05/29 09:54:50;;;;;;;1.85;1.75;;;20.90;63.00;;;;;;5093559;28;20346;-42
2021/05/29 09:57:18;;;;;;;2.25;1.73;;;20.70;63.10;;;;;;5093547;28;20625;-42
2021/05/29 10:00:00;;;;;;;5.07;3.72;;;20.70;63.20;;;;;;5093346;28;20538;-45
2021/05/29 10:02:28;;;;;;;1.90;1.80;;;20.80;62.80;;;;;;5092745;28;20214;-46
2021/05/29 10:04:56;;;;;;;2.35;1.80;;;20.80;63.10;;;;;;5093344;28;20633;-40
2021/05/29 10:07:25;;;;;;;7.50;4.72;;;20.80;63.60;;;;;;5093084;28;20223;-40
2021/05/29 10:09:53;;;;;;;2.95;2.00;;;20.80;63.40;;;;;;5093212;28;20293;-40
2021/05/29 10:12:20;;;;;;;2.20;1.50;;;20.70;63.30;;;;;;5092840;28;20232;-44
2021/05/29 10:14:48;;;;;;;1.70;1.60;;;20.60;63.30;;;;;;5092804;28;20302;-42
2021/05/29 10:17:15;;;;;;;3.50;2.05;;;20.50;62.80;;;;;;5093308;28;20203;-42
2021/05/29 10:19:45;;;;;;;2.50;2.08;;;20.50;63.00;;;;;;5092567;28;20709;-42
2021/05/29 10:22:16;;;;;;;2.40;1.85;;;20.60;62.90;;;;;;5092637;28;20203;-42
2021/05/29 10:24:45;;;;;;;1.92;1.83;;;20.70;62.70;;;;;;5093018;28;20617;-41
2021/05/29 10:27:18;;;;;;;1.90;1.60;;;20.60;62.10;;;;;;5092774;28;20679;-40
2021/05/29 10:29:51;;;;;;;2.55;1.65;;;20.60;62.10;;;;;;5093018;28;20297;-41
2021/05/29 10:32:20;;;;;;;1.65;1.45;;;20.60;62.30;;;;;;5093004;28;20294;-42
2021/05/29 10:34:53;;;;;;;2.13;1.80;;;20.50;60.90;;;;;;5092638;28;20728;-42
2021/05/29 10:37:32;;;;;;;3.42;1.88;;;20.30;60.40;;;;;;5092382;28;20202;-42
2021/05/29 10:40:24;;;;;;;1.55;1.33;;;20.20;61.30;;;;;;5092796;28;20289;-41
2021/05/29 10:43:10;;;;;;;1.30;1.20;;;20.20;60.10;;;;;;5092819;28;20541;-40
2021/05/29 10:45:39;;;;;;;2.63;1.92;;;20.20;58.60;;;;;;5092560;28;20207;-41
2021/05/29 10:48:11;;;;;;;3.50;2.97;;;20.30;59.50;;;;;;5092047;28;20794;-40
2021/05/29 10:51:03;;;;;;;1.73;1.35;;;20.50;59.60;;;;;;5092207;28;20251;-40
2021/05/29 10:53:51;;;;;;;2.17;1.75;;;20.60;59.40;;;;;;5092667;28;20302;-41
2021/05/29 10:56:32;;;;;;;3.47;2.05;;;20.50;59.50;;;;;;5092165;28;20213;-40
2021/05/29 10:59:09;;;;;;;2.33;1.98;;;20.40;60.20;;;;;;5092347;28;20209;-40
2021/05/29 11:02:04;;;;;;;2.17;1.70;;;20.60;59.70;;;;;;5092311;28;20247;-42
2021/05/29 11:04:32;;;;;;;1.50;1.40;;;20.90;59.10;;;;;;5083125;28;20214;-40
2021/05/29 11:07:18;;;;;;;2.58;1.42;;;21.10;58.90;;;;;;5091934;28;20206;-41
2021/05/29 11:09:52;;;;;;;1.58;1.48;;;21.50;58.00;;;;;;5089886;28;20301;-40
2021/05/29 11:12:21;;;;;;;1.35;1.25;;;21.80;57.20;;;;;;5092211;28;20304;-41
2021/05/29 11:14:55;;;;;;;2.17;1.98;;;22.10;56.70;;;;;;5091127;28;20210;-40
2021/05/29 11:17:30;;;;;;;2.50;2.30;;;22.20;56.60;;;;;;5092827;28;20674;-40
2021/05/29 11:20:09;;;;;;;2.63;1.98;;;22.00;56.80;;;;;;5094678;28;20249;-40
2021/05/29 11:22:43;;;;;;;3.38;2.25;;;21.80;57.20;;;;;;5092020;28;20264;-43
2021/05/29 11:25:16;;;;;;;1.58;1.48;;;21.50;57.40;;;;;;5091742;28;20244;-40
2021/05/29 11:27:46;;;;;;;2.03;1.77;;;21.30;58.10;;;;;;5091697;28;20265;-40
2021/05/29 11:30:15;;;;;;;11.93;1.88;;;21.10;58.30;;;;;;5091748;28;20657;-40
2021/05/29 11:32:49;;;;;;;2.65;1.42;;;21.10;58.20;;;;;;5091716;28;20209;-39
2021/05/29 11:35:23;;;;;;;6.28;5.65;;;20.80;58.00;;;;;;5091761;28;20568;-39
2021/05/29 11:38:00;;;;;;;7.45;6.00;;;20.60;58.60;;;;;;5091830;28;20226;-39
2021/05/29 11:40:57;;;;;;;6.88;5.43;;;20.50;59.00;;;;;;5091558;28;20210;-39
2021/05/29 11:43:39;;;;;;;2.50;2.15;;;20.30;59.00;;;;;;5091744;28;20400;-39
2021/05/29 11:46:08;;;;;;;2.85;2.63;;;20.20;58.70;;;;;;5091681;28;20578;-42
2021/05/29 11:48:37;;;;;;;2.35;1.95;;;20.10;58.60;;;;;;5091523;28;20233;-39
2021/05/29 11:51:10;;;;;;;1.73;1.63;;;19.90;58.90;;;;;;5091958;28;20210;-42
2021/05/29 11:53:40;;;;;;;4.05;2.80;;;19.80;58.90;;;;;;5091981;28;20290;-39
2021/05/29 11:56:08;;;;;;;2.00;1.73;;;20.00;58.60;;;;;;5091987;28;20229;-39
2021/05/29 11:58:50;;;;;;;1.95;1.58;;;20.40;57.90;;;;;;5092314;28;20302;-41
2021/05/29 12:01:20;;;;;;;1.92;1.42;;;20.60;57.20;;;;;;5091772;28;20306;-39
2021/05/29 12:03:50;;;;;;;1.73;1.52;;;20.90;56.70;;;;;;5091958;28;20213;-40
2021/05/29 12:06:46;;;;;;;2.40;1.30;;;20.90;56.40;;;;;;5091667;28;20211;-40
2021/05/29 12:09:16;;;;;;;1.65;1.45;;;21.10;56.10;;;;;;5091386;28;20233;-39
2021/05/29 12:11:45;;;;;;;1.50;1.08;;;21.30;55.90;;;;;;5091267;28;20374;-43
2021/05/29 12:14:19;;;;;;;1.42;1.33;;;21.40;55.70;;;;;;5091666;28;20207;-40
2021/05/29 12:16:50;;;;;;;1.13;1.02;;;21.10;56.20;;;;;;5091442;28;20650;-40
2021/05/29 12:19:30;;;;;;;1.60;1.50;;;20.80;56.70;;;;;;5091480;28;20249;-42
2021/05/29 12:21:59;;;;;;;1.48;1.30;;;20.30;57.30;;;;;;5091003;28;20206;-41
2021/05/29 12:24:34;;;;;;;2.38;1.30;;;20.00;57.90;;;;;;5092050;28;20210;-39
2021/05/29 12:27:01;;;;;;;1.60;1.50;;;20.00;58.20;;;;;;5095181;28;20625;-40
2021/05/29 12:29:29;;;;;;;1.90;1.40;;;19.90;58.30;;;;;;5094881;28;20324;-40
2021/05/29 12:31:58;;;;;;;1.50;1.35;;;19.80;59.10;;;;;;5095217;28;20206;-40
2021/05/29 12:34:29;;;;;;;1.48;1.10;;;19.70;58.60;;;;;;5094530;28;20214;-39
2021/05/29 12:37:08;;;;;;;1.63;1.52;;;19.60;58.50;;;;;;5094977;28;20202;-40
2021/05/29 12:39:55;;;;;;;1.88;1.38;;;19.60;58.60;;;;;;5094973;28;20216;-40
2021/05/29 12:42:24;;;;;;;2.28;1.65;;;19.80;58.20;;;;;;5094659;28;20206;-42
2021/05/29 12:44:54;;;;;;;1.55;1.23;;;20.20;57.70;;;;;;5094430;28;20309;-40
2021/05/29 12:47:23;;;;;;;5.68;3.35;;;20.50;56.80;;;;;;5094852;28;20245;-41
2021/05/29 12:49:52;;;;;;;1.80;1.17;;;20.80;56.10;;;;;;5094837;28;20203;-40
2021/05/29 12:52:27;;;;;;;9.48;6.50;;;20.90;55.20;;;;;;5094716;28;20660;-40
2021/05/29 12:54:56;;;;;;;1.42;1.30;;;21.10;55.10;;;;;;5094653;28;20285;-40
2021/05/29 12:57:34;;;;;;;2.15;1.10;;;21.30;54.60;;;;;;5094338;28;20740;-40
2021/05/29 13:00:24;;;;;;;6.63;1.55;;;21.40;54.20;;;;;;5094545;28;20211;-42
2021/05/29 13:09:08;;;;;;;1.10;1.00;;;21.90;52.60;;;;;;5094342;28;20226;-40
2021/05/29 13:11:37;;;;;;;0.95;0.75;;;22.20;51.10;;;;;;5094212;28;20242;-40
2021/05/29 13:14:06;;;;;;;5.38;1.58;;;22.40;51.60;;;;;;5094123;28;20294;-42
2021/05/29 13:16:50;;;;;;;2.45;1.98;;;22.50;51.50;;;;;;5093951;28;20238;-42